Time;durP1;ratioP1;P1;durP2;ratioP2;P2;SDS_P1;SDS_P2;PMS_P1;PMS_P2;Temp;Humidity;BMP_temperature;BMP_pressure;BME280_temperature;BME280_humidity;BME280_pressure;Samples;Min_cycle;Max_cycle;Signal;HPM_P1;HPM_P2
2021/11/18 00:00:20;;;;;;;22.52;6.25;;;;;;;5.44;100.00;101710.50;4997577;28;20120;-81
2021/11/18 00:02:49;;;;;;;17.63;5.72;;;;;;;5.44;100.00;101711.38;5015972;28;20046;-79
2021/11/18 00:05:17;;;;;;;26.40;6.45;;;;;;;5.50;100.00;101710.69;5008085;28;20096;-82
2021/11/18 00:07:49;;;;;;;15.38;5.70;;;;;;;5.54;100.00;101714.22;5015577;28;20225;-80
2021/11/18 00:10:30;;;;;;;18.17;5.35;;;;;;;5.54;100.00;101712.53;5019558;28;20068;-78
2021/11/18 00:12:59;;;;;;;19.00;6.70;;;;;;;5.58;100.00;101708.28;5001871;28;20053;-80
2021/11/18 00:15:29;;;;;;;15.65;4.78;;;;;;;5.58;100.00;101722.16;5010481;28;20048;-80
2021/11/18 00:18:03;;;;;;;18.33;5.50;;;;;;;5.55;100.00;101724.66;5016271;28;20052;-81
2021/11/18 00:20:41;;;;;;;18.55;4.82;;;;;;;5.56;100.00;101729.03;5018610;28;20053;-79
2021/11/18 00:23:08;;;;;;;20.63;4.70;;;;;;;5.59;100.00;101731.72;5017935;28;20688;-80
2021/11/18 00:25:35;;;;;;;11.02;4.95;;;;;;;5.67;100.00;101731.94;5011976;28;20494;-81
2021/11/18 00:28:02;;;;;;;17.05;5.97;;;;;;;5.76;100.00;101733.91;5015741;28;20377;-82
2021/11/18 00:30:29;;;;;;;20.98;5.32;;;;;;;5.80;100.00;101738.34;5000832;28;20057;-78
2021/11/18 00:32:56;;;;;;;12.95;5.20;;;;;;;5.80;100.00;101740.94;5016392;28;20049;-84
2021/11/18 00:35:27;;;;;;;27.02;7.25;;;;;;;5.76;100.00;101747.81;5009411;28;20049;-81
2021/11/18 00:37:56;;;;;;;15.07;4.82;;;;;;;5.73;100.00;101741.63;5013464;28;20064;-82
2021/11/18 00:40:35;;;;;;;28.38;6.90;;;;;;;5.71;100.00;101744.19;4998722;28;20076;-80
2021/11/18 00:43:05;;;;;;;15.25;5.88;;;;;;;5.70;100.00;101744.16;5021137;28;20103;-81
2021/11/18 00:45:34;;;;;;;12.18;5.38;;;;;;;5.75;100.00;101740.84;5016704;28;20045;-80
2021/11/18 00:48:00;;;;;;;12.32;4.38;;;;;;;5.84;100.00;101735.03;5017239;28;20053;-79
2021/11/18 00:50:41;;;;;;;14.27;5.07;;;;;;;5.93;100.00;101745.69;5017462;28;20068;-84
2021/11/18 00:53:08;;;;;;;17.17;5.72;;;;;;;6.02;99.21;101755.44;5012257;28;20124;-82
2021/11/18 00:55:35;;;;;;;14.10;4.13;;;;;;;6.03;98.90;101752.03;4993802;28;20056;-82
2021/11/18 00:58:02;;;;;;;14.57;4.97;;;;;;;5.99;98.34;101744.97;5011783;28;20124;-82
2021/11/18 01:00:34;;;;;;;17.20;4.43;;;;;;;5.90;98.95;101753.38;5013289;28;20065;-80
2021/11/18 01:03:01;;;;;;;11.60;4.07;;;;;;;5.83;99.35;101760.94;5000150;28;20548;-80
2021/11/18 01:05:34;;;;;;;18.52;4.60;;;;;;;5.75;100.00;101765.91;5006774;28;20132;-78
2021/11/18 01:08:02;;;;;;;10.68;4.32;;;;;;;5.74;100.00;101772.84;5013538;28;20060;-83
2021/11/18 01:10:41;;;;;;;14.70;4.57;;;;;;;5.78;100.00;101772.09;5011012;28;20087;-80
2021/11/18 01:13:09;;;;;;;15.05;6.20;;;;;;;5.83;100.00;101781.72;4997033;28;20559;-80
2021/11/18 01:15:41;;;;;;;13.35;4.82;;;;;;;5.87;100.00;101784.47;4990413;28;20495;-83
2021/11/18 01:18:08;;;;;;;12.25;5.13;;;;;;;5.91;100.00;101785.44;4997531;28;20042;-81
2021/11/18 01:20:37;;;;;;;16.98;5.40;;;;;;;5.95;99.88;101777.75;4999349;28;20046;-80
2021/11/18 01:23:07;;;;;;;16.05;4.88;;;;;;;6.00;100.00;101777.03;5027579;28;20611;-78
2021/11/18 01:25:35;;;;;;;14.57;5.43;;;;;;;6.02;99.68;101778.84;4995077;28;20681;-81
2021/11/18 01:28:03;;;;;;;16.88;5.95;;;;;;;6.03;99.45;101771.94;5013283;28;20057;-84
2021/11/18 01:30:33;;;;;;;20.48;6.35;;;;;;;6.03;99.45;101780.63;4999058;28;20214;-80
2021/11/18 01:33:03;;;;;;;15.38;5.57;;;;;;;6.00;99.56;101795.25;5012279;28;20510;-83
2021/11/18 01:35:30;;;;;;;17.50;5.78;;;;;;;5.96;100.00;101795.13;4994379;28;20041;-80
2021/11/18 01:37:57;;;;;;;15.63;5.78;;;;;;;5.93;99.82;101787.25;4996833;28;20381;-81
2021/11/18 01:40:31;;;;;;;18.80;5.47;;;;;;;5.91;99.97;101785.44;5013114;28;20053;-80
2021/11/18 01:42:58;;;;;;;10.60;4.10;;;;;;;5.87;99.96;101786.22;5004834;28;20120;-84
2021/11/18 01:45:30;;;;;;;13.70;5.20;;;;;;;5.83;100.00;101784.31;5042083;28;20113;-81
2021/11/18 01:47:57;;;;;;;20.08;4.57;;;;;;;5.79;100.00;101784.25;5031026;28;20368;-82
2021/11/18 01:50:27;;;;;;;15.50;4.60;;;;;;;5.72;100.00;101784.03;5032703;28;20042;-85
2021/11/18 01:52:56;;;;;;;18.80;6.38;;;;;;;5.70;100.00;101780.53;5040300;28;20030;-84
2021/11/18 01:55:25;;;;;;;12.80;5.05;;;;;;;5.71;100.00;101792.66;5031704;28;20042;-84
2021/11/18 01:57:52;;;;;;;11.07;4.20;;;;;;;5.72;100.00;101797.03;5032976;28;20042;-85
2021/11/18 02:00:33;;;;;;;14.20;3.83;;;;;;;5.71;100.00;101787.47;5025411;28;20056;-77
2021/11/18 02:03:00;;;;;;;19.60;5.20;;;;;;;5.71;100.00;101787.47;5020141;28;20037;-78
2021/11/18 02:05:34;;;;;;;13.77;3.67;;;;;;;5.73;100.00;101786.66;5012559;28;20696;-79
2021/11/18 02:08:02;;;;;;;15.52;4.63;;;;;;;5.78;100.00;101787.69;5018839;28;20472;-78
2021/11/18 02:10:39;;;;;;;10.35;3.58;;;;;;;5.86;100.00;101785.31;5020509;28;20046;-79
2021/11/18 02:13:09;;;;;;;12.85;4.20;;;;;;;5.85;100.00;101780.06;5018507;28;20119;-83
2021/11/18 02:15:44;;;;;;;11.60;3.92;;;;;;;5.82;100.00;101783.47;4999375;28;20073;-83
2021/11/18 02:18:23;;;;;;;17.08;4.95;;;;;;;5.86;100.00;101787.91;5016601;28;20420;-82
2021/11/18 02:20:59;;;;;;;13.48;4.13;;;;;;;5.89;100.00;101781.91;5017648;28;20049;-78
2021/11/18 02:23:31;;;;;;;13.82;3.92;;;;;;;5.91;100.00;101783.72;5002059;28;20484;-81
2021/11/18 02:25:59;;;;;;;11.15;3.95;;;;;;;5.92;100.00;101793.28;5005705;28;20042;-77
2021/11/18 02:28:32;;;;;;;10.93;3.40;;;;;;;5.96;100.00;101789.94;5015917;28;20459;-81
2021/11/18 02:31:02;;;;;;;14.30;4.28;;;;;;;5.94;100.00;101802.03;5028594;28;20105;-81
2021/11/18 02:33:29;;;;;;;13.07;3.88;;;;;;;5.95;100.00;101795.97;5019599;28;20128;-78
2021/11/18 02:35:58;;;;;;;10.48;3.45;;;;;;;5.93;100.00;101800.25;5015696;28;20050;-80
2021/11/18 02:38:24;;;;;;;14.50;4.30;;;;;;;5.90;100.00;101792.34;5017801;28;20045;-83
2021/11/18 02:40:51;;;;;;;11.50;4.95;;;;;;;5.85;100.00;101793.94;5035116;28;20049;-81
2021/11/18 02:43:17;;;;;;;11.75;4.05;;;;;;;5.80;100.00;101790.31;5021210;28;20109;-79
2021/11/18 02:45:49;;;;;;;14.02;3.83;;;;;;;5.76;100.00;101796.25;5014492;28;20053;-80
2021/11/18 02:48:19;;;;;;;22.20;5.20;;;;;;;5.72;100.00;101800.53;5008094;28;20069;-79
2021/11/18 02:50:52;;;;;;;11.52;3.35;;;;;;;5.75;100.00;101804.88;5018625;28;20045;-81
2021/11/18 02:53:20;;;;;;;21.85;5.22;;;;;;;5.82;100.00;101817.25;5001774;28;20378;-78
2021/11/18 02:55:49;;;;;;;15.70;3.47;;;;;;;5.90;100.00;101807.06;5012472;28;20472;-79
2021/11/18 02:58:17;;;;;;;18.75;5.03;;;;;;;6.01;100.00;101812.59;5016809;28;20037;-81
2021/11/18 03:00:58;;;;;;;11.23;4.00;;;;;;;6.09;100.00;101817.19;5015813;28;20049;-80
2021/11/18 03:03:25;;;;;;;19.55;4.40;;;;;;;6.13;100.00;101808.63;5016804;28;20748;-78
2021/11/18 03:05:53;;;;;;;18.02;4.45;;;;;;;6.16;100.00;101802.63;5009689;28;20069;-84
2021/11/18 03:08:22;;;;;;;12.18;3.45;;;;;;;6.17;100.00;101798.34;5035584;28;20567;-83
2021/11/18 03:10:50;;;;;;;18.10;4.38;;;;;;;6.16;100.00;101805.25;5004538;28;20140;-80
2021/11/18 03:13:18;;;;;;;12.73;4.63;;;;;;;6.17;100.00;101806.13;5014952;28;20552;-80
2021/11/18 03:15:45;;;;;;;9.55;3.78;;;;;;;6.19;100.00;101807.94;5009840;28;20056;-78
2021/11/18 03:18:13;;;;;;;16.73;4.82;;;;;;;6.21;100.00;101806.25;5013928;28;20057;-79
2021/11/18 03:20:40;;;;;;;15.85;4.18;;;;;;;6.27;100.00;101801.22;5018751;28;20053;-80
2021/11/18 03:23:09;;;;;;;11.73;4.57;;;;;;;6.32;100.00;101801.31;4998859;28;21011;-82
2021/11/18 03:25:38;;;;;;;14.63;6.22;;;;;;;6.35;100.00;101804.03;5011394;28;20081;-81
2021/11/18 03:28:06;;;;;;;11.75;3.80;;;;;;;6.35;100.00;101793.63;5015925;28;20652;-81
2021/11/18 03:30:36;;;;;;;9.75;4.13;;;;;;;6.39;100.00;101797.19;5015246;28;20033;-81
2021/11/18 03:33:10;;;;;;;16.45;5.00;;;;;;;6.39;100.00;101805.88;5018755;28;20103;-83
2021/11/18 03:35:37;;;;;;;13.50;5.53;;;;;;;6.40;100.00;101805.03;5013450;28;20922;-81
2021/11/18 03:38:03;;;;;;;11.90;4.47;;;;;;;6.44;99.84;101793.88;5015167;28;20050;-80
2021/11/18 03:40:31;;;;;;;13.43;5.50;;;;;;;6.51;99.79;101787.09;5020947;28;20053;-86
2021/11/18 03:42:59;;;;;;;19.65;5.45;;;;;;;6.54;99.46;101797.56;4998692;28;20060;-81
2021/11/18 03:45:29;;;;;;;14.95;5.20;;;;;;;6.52;99.57;101795.78;4996228;28;20050;-80
2021/11/18 03:47:56;;;;;;;17.25;5.07;;;;;;;6.52;99.88;101796.69;5010300;28;20473;-78
2021/11/18 03:50:24;;;;;;;12.10;4.78;;;;;;;6.54;100.00;101797.56;5012739;28;20045;-80
2021/11/18 03:52:51;;;;;;;20.35;5.63;;;;;;;6.60;99.61;101791.66;5019220;28;20484;-78
2021/11/18 03:55:19;;;;;;;21.33;5.53;;;;;;;6.61;99.57;101801.25;5006333;28;20046;-80
2021/11/18 03:57:47;;;;;;;19.98;5.53;;;;;;;6.66;99.48;101803.94;4999951;28;20049;-80
2021/11/18 04:00:25;;;;;;;19.60;7.47;;;;;;;6.66;99.66;101801.34;5001747;28;21271;-80
2021/11/18 04:02:52;;;;;;;14.77;5.72;;;;;;;6.69;99.41;101804.91;5006604;28;20045;-80
2021/11/18 04:05:19;;;;;;;16.48;5.15;;;;;;;6.73;99.54;101808.47;5007259;28;20152;-84
2021/11/18 04:07:46;;;;;;;12.43;6.05;;;;;;;6.76;99.34;101800.75;5014369;28;20056;-79
2021/11/18 04:10:19;;;;;;;14.05;5.63;;;;;;;6.82;99.15;101805.22;5017181;28;20124;-80
2021/11/18 04:12:47;;;;;;;17.65;6.07;;;;;;;6.80;99.30;101805.19;5016076;28;20132;-80
2021/11/18 04:15:15;;;;;;;15.43;5.82;;;;;;;6.82;99.33;101803.50;5011193;28;20496;-81
2021/11/18 04:17:41;;;;;;;15.85;5.30;;;;;;;6.78;99.12;101801.69;5020978;28;20049;-84
2021/11/18 04:20:10;;;;;;;15.02;4.75;;;;;;;6.76;99.48;101805.94;5020636;28;20156;-79
2021/11/18 04:22:38;;;;;;;14.02;5.28;;;;;;;6.66;100.00;101812.63;5013292;28;20048;-82
2021/11/18 04:25:10;;;;;;;24.95;6.28;;;;;;;6.58;100.00;101804.66;4995609;28;20046;-83
2021/11/18 04:27:39;;;;;;;16.80;7.10;;;;;;;6.51;100.00;101800.13;5016031;28;20053;-82
2021/11/18 04:30:07;;;;;;;22.35;6.10;;;;;;;6.45;100.00;101799.94;4998187;28;20079;-82
2021/11/18 04:32:34;;;;;;;13.25;6.45;;;;;;;6.42;100.00;101799.88;5014937;28;20064;-81
2021/11/18 04:35:01;;;;;;;15.00;5.70;;;;;;;6.33;100.00;101795.28;5010596;28;20046;-79
2021/11/18 04:37:30;;;;;;;21.92;6.30;;;;;;;6.26;100.00;101799.44;5014281;28;20041;-78
2021/11/18 04:39:59;;;;;;;20.38;6.28;;;;;;;6.22;100.00;101807.13;4996566;28;20461;-82
2021/11/18 04:42:25;;;;;;;15.13;6.63;;;;;;;6.21;100.00;101808.84;5015603;28;20134;-81
2021/11/18 04:44:52;;;;;;;16.30;6.75;;;;;;;6.16;100.00;101819.97;5013842;28;20056;-82
2021/11/18 04:47:19;;;;;;;21.60;6.07;;;;;;;6.11;100.00;101823.31;4996343;28;20088;-83
2021/11/18 04:49:49;;;;;;;20.48;6.72;;;;;;;6.05;100.00;101820.53;5014158;28;21155;-81
2021/11/18 04:52:17;;;;;;;21.20;6.65;;;;;;;6.03;100.00;101819.59;5013749;28;20040;-80
2021/11/18 04:54:45;;;;;;;20.55;7.15;;;;;;;5.96;100.00;101817.66;5014080;28;20038;-85
2021/11/18 04:57:12;;;;;;;25.27;8.15;;;;;;;5.94;100.00;101821.91;5012114;28;20091;-81
2021/11/18 04:59:39;;;;;;;20.33;6.43;;;;;;;5.94;100.00;101829.72;5014231;28;20134;-80
2021/11/18 05:02:05;;;;;;;17.95;9.02;;;;;;;5.97;100.00;101829.78;4991479;28;20065;-84
2021/11/18 05:04:32;;;;;;;20.38;8.70;;;;;;;6.04;100.00;101825.72;5008874;28;20033;-81
2021/11/18 05:06:58;;;;;;;18.75;7.80;;;;;;;6.12;100.00;101829.41;5012426;28;20516;-81
2021/11/18 05:09:25;;;;;;;17.88;8.27;;;;;;;6.21;100.00;101827.06;5013795;28;20062;-80
2021/11/18 05:11:52;;;;;;;18.20;8.05;;;;;;;6.25;100.00;101822.81;5001107;28;20065;-80
2021/11/18 05:14:20;;;;;;;17.90;7.65;;;;;;;6.32;100.00;101821.28;4997645;28;20041;-84
2021/11/18 05:16:47;;;;;;;24.63;7.30;;;;;;;6.29;100.00;101825.53;5009690;28;20054;-80
2021/11/18 05:19:14;;;;;;;18.10;7.68;;;;;;;6.31;100.00;101833.41;5011715;28;20042;-80
2021/11/18 05:21:41;;;;;;;16.15;6.57;;;;;;;6.28;100.00;101835.91;5017388;28;20041;-80
2021/11/18 05:24:09;;;;;;;21.77;7.38;;;;;;;6.24;100.00;101836.66;5012651;28;20132;-79
2021/11/18 05:26:36;;;;;;;20.98;8.13;;;;;;;6.20;100.00;101838.28;5015289;28;20125;-83
2021/11/18 05:29:05;;;;;;;17.65;7.55;;;;;;;6.18;100.00;101839.97;5024566;28;20053;-84
2021/11/18 05:31:32;;;;;;;21.33;7.90;;;;;;;6.16;100.00;101841.63;5027497;28;20045;-81
2021/11/18 05:33:59;;;;;;;20.80;9.30;;;;;;;6.15;100.00;101841.59;5025238;28;20076;-82
2021/11/18 05:36:26;;;;;;;22.38;9.10;;;;;;;6.15;100.00;101837.28;5028007;28;20296;-85
2021/11/18 05:38:53;;;;;;;21.48;9.73;;;;;;;6.13;100.00;101833.75;5046776;28;20037;-80
2021/11/18 05:41:21;;;;;;;22.17;8.90;;;;;;;6.09;100.00;101837.13;5036999;28;20102;-85
2021/11/18 05:43:48;;;;;;;20.85;8.60;;;;;;;6.08;100.00;101833.63;5041699;28;20040;-84
2021/11/18 05:46:18;;;;;;;25.17;8.93;;;;;;;6.07;100.00;101843.97;5031336;28;20223;-79
2021/11/18 05:48:45;;;;;;;21.35;8.93;;;;;;;6.07;100.00;101846.56;5021961;28;20053;-82
2021/11/18 05:51:14;;;;;;;24.70;8.70;;;;;;;6.06;100.00;101857.81;5019230;28;20488;-80
2021/11/18 05:53:45;;;;;;;30.08;11.07;;;;;;;6.07;100.00;101852.66;5020223;28;20041;-79
2021/11/18 05:56:16;;;;;;;26.55;9.57;;;;;;;6.08;100.00;101853.53;5017676;28;20128;-79
2021/11/18 05:58:44;;;;;;;24.23;9.60;;;;;;;6.06;100.00;101852.59;5018449;28;20050;-79
2021/11/18 06:01:13;;;;;;;27.67;10.30;;;;;;;6.08;100.00;101848.34;5015413;28;20487;-81
2021/11/18 06:03:42;;;;;;;19.08;9.05;;;;;;;6.09;100.00;101850.97;5021014;28;20510;-83
2021/11/18 06:06:10;;;;;;;23.15;9.90;;;;;;;6.13;100.00;101862.38;5023430;28;20104;-86
2021/11/18 06:08:37;;;;;;;25.30;10.27;;;;;;;6.16;100.00;101857.25;5025945;28;20037;-80
2021/11/18 06:11:05;;;;;;;37.92;11.40;;;;;;;6.19;100.00;101864.25;5022256;28;20030;-80
2021/11/18 06:13:33;;;;;;;22.63;10.20;;;;;;;6.20;100.00;101864.28;5042403;28;20045;-79
2021/11/18 06:16:01;;;;;;;21.58;10.20;;;;;;;6.22;100.00;101861.72;5022226;28;20131;-81
2021/11/18 06:18:27;;;;;;;29.77;10.73;;;;;;;6.23;100.00;101864.38;5020908;28;20065;-81
2021/11/18 06:20:54;;;;;;;23.88;9.93;;;;;;;6.23;100.00;101858.28;5022273;28;20145;-78
2021/11/18 06:23:22;;;;;;;22.65;11.73;;;;;;;6.24;100.00;101867.84;5018602;28;20492;-84
2021/11/18 06:25:50;;;;;;;20.05;11.10;;;;;;;6.25;100.00;101878.28;5016014;28;20926;-80
2021/11/18 06:28:16;;;;;;;29.92;12.15;;;;;;;6.28;100.00;101877.50;5019680;28;20037;-81
2021/11/18 06:30:52;;;;;;;26.17;11.05;;;;;;;6.32;100.00;101874.16;5014528;28;20054;-81
2021/11/18 06:33:21;;;;;;;31.35;12.38;;;;;;;6.36;100.00;101873.44;5018427;28;20041;-82
2021/11/18 06:35:51;;;;;;;21.42;11.63;;;;;;;6.39;100.00;101873.50;5019344;28;20052;-81
2021/11/18 06:38:17;;;;;;;23.20;10.88;;;;;;;6.39;100.00;101865.69;5019817;28;20049;-79
2021/11/18 06:40:47;;;;;;;29.63;11.40;;;;;;;6.43;100.00;101872.75;5020642;28;20472;-80
2021/11/18 06:43:15;;;;;;;22.55;11.00;;;;;;;6.46;100.00;101871.94;5016569;28;20575;-80
2021/11/18 06:45:45;;;;;;;26.48;11.15;;;;;;;6.49;100.00;101877.22;5015745;28;20085;-80
2021/11/18 06:48:16;;;;;;;24.63;13.07;;;;;;;6.52;100.00;101871.22;5017122;28;20503;-81
2021/11/18 06:50:43;;;;;;;24.80;13.38;;;;;;;6.56;100.00;101883.50;5014588;28;20048;-81
2021/11/18 06:53:11;;;;;;;29.42;12.63;;;;;;;6.58;100.00;101866.19;5002573;28;20045;-80
2021/11/18 06:55:37;;;;;;;27.67;11.50;;;;;;;6.61;100.00;101877.56;5014901;28;20099;-81
2021/11/18 06:58:05;;;;;;;28.00;10.68;;;;;;;6.62;100.00;101868.94;5017464;28;20056;-80
2021/11/18 07:00:33;;;;;;;30.38;12.15;;;;;;;6.65;100.00;101873.34;5019341;28;20104;-79
2021/11/18 07:03:00;;;;;;;27.65;12.60;;;;;;;6.72;100.00;101870.03;5017070;28;21238;-79
2021/11/18 07:05:26;;;;;;;26.42;10.73;;;;;;;6.79;100.00;101881.50;5018460;28;21244;-79
2021/11/18 07:07:53;;;;;;;21.98;10.70;;;;;;;6.81;100.00;101877.22;5017607;28;20480;-79
2021/11/18 07:10:20;;;;;;;32.65;11.52;;;;;;;6.83;100.00;101875.56;5017306;28;20484;-80
2021/11/18 07:12:47;;;;;;;26.05;11.52;;;;;;;6.86;100.00;101879.97;5020812;28;20042;-82
2021/11/18 07:15:14;;;;;;;19.50;10.93;;;;;;;6.86;100.00;101879.97;5013202;28;20045;-83
2021/11/18 07:17:41;;;;;;;24.33;11.98;;;;;;;6.85;100.00;101891.19;5002154;28;20949;-81
2021/11/18 07:20:09;;;;;;;23.48;11.57;;;;;;;6.84;100.00;101898.09;4999917;28;20041;-80
2021/11/18 07:22:37;;;;;;;27.52;10.75;;;;;;;6.85;100.00;101899.00;5016843;28;20135;-84
2021/11/18 07:25:08;;;;;;;24.08;11.95;;;;;;;6.91;100.00;101904.34;5016756;28;20053;-82
2021/11/18 07:27:34;;;;;;;25.10;10.88;;;;;;;6.93;100.00;101900.09;5017647;28;20776;-79
2021/11/18 07:30:01;;;;;;;23.77;12.43;;;;;;;6.99;100.00;101904.56;5016497;28;20595;-80
2021/11/18 07:32:28;;;;;;;30.35;12.18;;;;;;;7.04;100.00;101910.75;5017067;28;20195;-83
2021/11/18 07:34:55;;;;;;;23.88;12.85;;;;;;;7.00;100.00;101914.13;5014601;28;20099;-86
2021/11/18 07:37:21;;;;;;;36.70;14.75;;;;;;;6.96;100.00;101905.34;5018858;28;20511;-79
2021/11/18 07:39:48;;;;;;;28.00;12.50;;;;;;;6.93;100.00;101916.56;5000796;28;20041;-82
2021/11/18 07:42:14;;;;;;;35.35;13.68;;;;;;;6.92;100.00;101914.84;5014884;28;20131;-79
2021/11/18 07:44:41;;;;;;;29.17;11.98;;;;;;;6.91;100.00;101933.88;5018156;28;20060;-82
2021/11/18 07:47:07;;;;;;;34.88;13.02;;;;;;;6.91;100.00;101922.56;5013770;28;20049;-79
2021/11/18 07:49:34;;;;;;;31.50;13.82;;;;;;;6.92;100.00;101921.75;5020718;28;20176;-80
2021/11/18 07:52:01;;;;;;;35.22;14.55;;;;;;;6.93;100.00;101937.41;5005231;28;20055;-78
2021/11/18 07:54:31;;;;;;;31.42;15.23;;;;;;;7.01;100.00;101942.81;5028319;28;20153;-80
2021/11/18 07:56:57;;;;;;;29.85;12.93;;;;;;;7.05;100.00;101941.16;5019455;28;20128;-79
2021/11/18 07:59:25;;;;;;;32.08;14.20;;;;;;;7.06;100.00;101951.63;5020114;28;20041;-77
2021/11/18 08:01:52;;;;;;;31.60;14.63;;;;;;;7.02;100.00;101941.09;5020432;28;20105;-80
2021/11/18 08:04:18;;;;;;;28.00;13.07;;;;;;;7.01;100.00;101940.22;5020493;28;20037;-81
2021/11/18 08:06:46;;;;;;;39.65;14.82;;;;;;;6.98;100.00;101945.34;5013508;28;20522;-79
2021/11/18 08:09:14;;;;;;;34.33;16.15;;;;;;;6.97;100.00;101940.09;5016451;28;20042;-81
2021/11/18 08:11:47;;;;;;;59.45;15.75;;;;;;;6.99;100.00;101941.91;5016504;28;20482;-79
2021/11/18 08:14:15;;;;;;;39.92;14.43;;;;;;;7.00;100.00;101937.56;5014362;28;20055;-77
2021/11/18 08:16:43;;;;;;;39.15;15.43;;;;;;;7.03;100.00;101948.94;5017236;28;20052;-81
2021/11/18 08:19:10;;;;;;;37.47;16.83;;;;;;;7.06;100.00;101929.94;5032571;28;20438;-78
2021/11/18 08:21:38;;;;;;;38.65;14.23;;;;;;;7.08;100.00;101926.53;5017363;28;20070;-83
2021/11/18 08:24:09;;;;;;;25.88;15.35;;;;;;;7.11;100.00;101930.94;5030782;28;20046;-78
2021/11/18 08:26:37;;;;;;;27.90;14.60;;;;;;;7.20;100.00;101933.75;5030251;28;20060;-85
2021/11/18 08:29:06;;;;;;;37.70;16.17;;;;;;;7.22;100.00;101929.50;5021563;28;20164;-82
2021/11/18 08:31:33;;;;;;;40.03;17.10;;;;;;;7.26;100.00;101923.50;5000416;28;20644;-82
2021/11/18 08:34:00;;;;;;;34.08;14.48;;;;;;;7.34;100.00;101920.19;4999317;28;20408;-80
2021/11/18 08:36:27;;;;;;;32.88;13.90;;;;;;;7.46;100.00;101917.91;5016702;28;20041;-81
2021/11/18 08:38:56;;;;;;;29.85;13.57;;;;;;;7.67;99.39;101925.34;5017316;28;20040;-80
2021/11/18 08:41:23;;;;;;;25.77;13.85;;;;;;;7.83;98.63;101930.94;5017920;28;20128;-80
2021/11/18 08:43:53;;;;;;;37.10;14.65;;;;;;;7.99;97.73;101939.97;5030147;28;20037;-83
2021/11/18 08:46:21;;;;;;;38.40;14.77;;;;;;;8.09;96.55;101941.94;5013541;28;20064;-82
2021/11/18 08:48:50;;;;;;;30.25;14.38;;;;;;;8.15;96.26;101928.13;5020141;28;20045;-80
2021/11/18 08:51:22;;;;;;;35.28;15.57;;;;;;;8.23;95.82;101926.59;5031439;28;20042;-79
2021/11/18 08:53:53;;;;;;;37.60;16.13;;;;;;;8.24;96.23;101930.97;5015680;28;20487;-82
2021/11/18 08:56:20;;;;;;;41.90;16.30;;;;;;;8.26;96.21;101921.44;5031356;28;20042;-80
2021/11/18 08:58:51;;;;;;;29.42;15.93;;;;;;;8.31;95.94;101916.31;5015566;28;20787;-79
2021/11/18 09:01:39;;;;;;;33.17;14.07;;;;;;;8.34;95.47;101930.28;5034281;28;20053;-79
2021/11/18 09:04:14;;;;;;;34.42;14.00;;;;;;;8.39;95.07;101920.81;5012519;28;20038;-83
2021/11/18 09:06:42;;;;;;;28.25;13.27;;;;;;;8.40;95.51;101940.00;5016591;28;20037;-80
2021/11/18 09:09:11;;;;;;;30.20;13.23;;;;;;;8.46;94.87;101937.56;5029048;28;20041;-79
2021/11/18 09:11:39;;;;;;;43.80;16.67;;;;;;;8.50;94.25;101936.75;5014296;28;20048;-81
2021/11/18 09:14:06;;;;;;;32.78;14.15;;;;;;;8.50;93.70;101941.06;5002108;28;20107;-79
2021/11/18 09:16:36;;;;;;;31.40;13.50;;;;;;;8.53;93.53;101938.56;5011454;28;20065;-81
2021/11/18 09:19:06;;;;;;;33.13;14.43;;;;;;;8.50;93.85;101939.38;5000219;28;20443;-82
2021/11/18 09:21:33;;;;;;;36.08;15.65;;;;;;;8.53;93.87;101938.56;5016847;28;20057;-81
2021/11/18 09:24:16;;;;;;;21.02;11.93;;;;;;;8.57;93.36;101941.22;5014774;28;20326;-79
2021/11/18 09:26:52;;;;;;;32.95;13.57;;;;;;;8.60;93.26;101946.53;5015711;28;20049;-77
2021/11/18 09:29:19;;;;;;;32.30;14.13;;;;;;;8.59;93.26;101943.88;4998973;28;20052;-78
2021/11/18 09:31:45;;;;;;;24.88;12.38;;;;;;;8.66;93.15;101952.72;5016206;28;20099;-82
2021/11/18 09:34:13;;;;;;;28.50;13.27;;;;;;;8.74;92.77;101967.66;5018680;28;20152;-84
2021/11/18 09:36:39;;;;;;;34.58;13.23;;;;;;;8.73;92.42;101959.81;5015887;28;20121;-79
2021/11/18 09:39:09;;;;;;;29.48;11.93;;;;;;;8.71;92.53;101959.78;5018680;28;20104;-83
2021/11/18 09:41:53;;;;;;;26.45;12.05;;;;;;;8.66;92.72;101971.00;5045598;28;20553;-85
2021/11/18 09:45:04;;;;;;;24.05;12.05;;;;;;;8.68;92.49;101972.78;5022202;28;20044;-81
2021/11/18 09:48:21;;;;;;;37.28;15.70;;;;;;;8.71;92.48;101972.84;5021718;28;20041;-81
2021/11/18 09:51:13;;;;;;;28.50;13.23;;;;;;;8.73;92.40;101968.50;5023400;28;20056;-81
2021/11/18 09:53:48;;;;;;;29.65;13.32;;;;;;;8.76;91.81;101972.91;5019963;28;20503;-80
2021/11/18 09:56:44;;;;;;;34.72;12.82;;;;;;;8.84;92.05;101975.69;5019952;28;20049;-81
2021/11/18 09:59:30;;;;;;;27.15;13.15;;;;;;;8.93;91.27;101963.69;5019869;28;20372;-77
2021/11/18 10:02:45;;;;;;;34.63;13.57;;;;;;;8.94;90.60;101968.06;5035870;28;20412;-83
2021/11/18 10:05:18;;;;;;;29.88;12.30;;;;;;;8.94;91.10;101968.06;5020693;28;20034;-82
2021/11/18 10:07:54;;;;;;;27.83;12.10;;;;;;;9.03;90.76;101969.97;5021016;28;20495;-82
2021/11/18 10:10:44;;;;;;;31.02;12.85;;;;;;;9.07;90.07;101970.91;5021308;28;20564;-80
2021/11/18 10:13:51;;;;;;;23.42;10.90;;;;;;;9.15;90.13;101961.50;5017973;28;20048;-78
2021/11/18 10:16:26;;;;;;;27.52;12.27;;;;;;;9.22;89.17;101952.91;5014971;28;20045;-79
2021/11/18 10:19:03;;;;;;;23.98;11.73;;;;;;;9.28;89.15;101962.56;5019582;28;20045;-83
2021/11/18 10:21:41;;;;;;;28.83;11.68;;;;;;;9.33;88.82;101945.22;5020905;28;20072;-78
2021/11/18 10:24:20;;;;;;;33.40;12.77;;;;;;;9.47;88.17;101944.59;5021117;28;20067;-77
2021/11/18 10:26:54;;;;;;;25.15;12.82;;;;;;;9.57;87.99;101946.53;5036294;28;20125;-81
2021/11/18 10:29:27;;;;;;;;;;;;;;;9.73;86.98;101945.00;5019910;28;20044;-79
2021/11/18 10:32:06;;;;;;;24.08;10.88;;;;;;;9.94;84.99;101936.59;5021364;28;19929;-83
2021/11/18 10:35:00;;;;;;;24.23;11.45;;;;;;;10.12;85.46;101938.59;5022546;28;20037;-82
2021/11/18 10:37:34;;;;;;;26.10;11.50;;;;;;;10.33;83.90;101953.69;5018788;28;20044;-78
2021/11/18 10:40:20;;;;;;;18.48;11.32;;;;;;;10.32;82.92;101935.38;5018826;28;20049;-82
2021/11/18 10:43:03;;;;;;;24.40;10.70;;;;;;;10.14;83.39;101936.88;5004517;28;20041;-78
2021/11/18 10:45:37;;;;;;;17.85;9.15;;;;;;;10.06;84.01;101935.88;5018904;28;20503;-79
2021/11/18 10:48:21;;;;;;;25.67;11.45;;;;;;;9.96;84.73;101934.91;5019559;28;20056;-81
2021/11/18 10:51:00;;;;;;;23.02;10.77;;;;;;;9.90;84.87;101940.03;5018707;28;21331;-79
2021/11/18 10:53:30;;;;;;;25.95;12.05;;;;;;;9.91;84.94;101937.44;5005809;28;20050;-78
2021/11/18 10:56:00;;;;;;;24.98;11.45;;;;;;;9.98;85.26;101930.56;5015862;28;20041;-79
2021/11/18 10:58:26;;;;;;;27.88;10.52;;;;;;;10.08;83.75;101926.34;5021208;28;20041;-80
2021/11/18 11:01:06;;;;;;;22.23;10.25;;;;;;;10.10;83.31;101916.75;5020439;28;20049;-79
2021/11/18 11:03:39;;;;;;;21.65;10.45;;;;;;;10.09;83.55;101915.88;5020192;28;20041;-82
2021/11/18 11:06:27;;;;;;;22.27;10.43;;;;;;;10.22;83.27;101923.88;5013622;28;20045;-84
2021/11/18 11:09:10;;;;;;;24.00;10.15;;;;;;;10.31;81.67;101917.91;5013423;28;20048;-87
2021/11/18 11:12:10;;;;;;;17.15;9.23;;;;;;;10.22;80.94;101913.41;5022665;28;20057;-80
2021/11/18 11:15:33;;;;;;;23.98;10.57;;;;;;;10.19;81.80;101910.78;5004013;28;20510;-81
2021/11/18 11:18:21;;;;;;;21.35;9.27;;;;;;;10.24;81.29;101915.19;4995467;28;20049;-81
2021/11/18 11:21:23;;;;;;;31.77;9.85;;;;;;;10.28;81.21;101905.66;5018451;28;20050;-82
2021/11/18 11:24:11;;;;;;;24.33;8.82;;;;;;;10.31;81.54;101908.31;5020955;28;20491;-83
2021/11/18 11:27:30;;;;;;;25.92;11.38;;;;;;;10.29;81.28;101899.56;5019358;28;20049;-78
2021/11/18 11:30:19;;;;;;;25.52;10.07;;;;;;;10.34;80.97;101899.59;5030085;28;20105;-81
2021/11/18 11:33:01;;;;;;;21.55;9.23;;;;;;;10.39;80.81;101898.84;5003414;28;20495;-78
2021/11/18 11:35:45;;;;;;;22.15;10.18;;;;;;;10.40;80.85;101897.09;5017695;28;20048;-79